sensor_id;sensor_type;location;lat;lon;timestamp;P1;durP1;ratioP1;P2;durP2;ratioP2
18267;SDS011;9260;49.998;19.880;2022-12-18T00:07:48;190.07;;;100.30;;
18267;SDS011;9260;49.998;19.880;2022-12-18T00:17:52;200.53;;;103.10;;
18267;SDS011;9260;49.998;19.880;2022-12-18T00:27:57;199.30;;;106.00;;
18267;SDS011;9260;49.998;19.880;2022-12-18T00:38:01;200.07;;;102.30;;
18267;SDS011;9260;49.998;19.880;2022-12-18T00:48:06;193.23;;;101.53;;
18267;SDS011;9260;49.998;19.880;2022-12-18T00:58:10;202.40;;;103.87;;
18267;SDS011;9260;49.998;19.880;2022-12-18T01:08:17;191.27;;;101.53;;
18267;SDS011;9260;49.998;19.880;2022-12-18T01:18:21;210.00;;;107.80;;
18267;SDS011;9260;49.998;19.880;2022-12-18T01:28:26;200.00;;;107.37;;
18267;SDS011;9260;49.998;19.880;2022-12-18T01:38:30;205.17;;;103.73;;
18267;SDS011;9260;49.998;19.880;2022-12-18T01:48:35;196.97;;;103.53;;
18267;SDS011;9260;49.998;19.880;2022-12-18T01:58:41;196.60;;;101.00;;
18267;SDS011;9260;49.998;19.880;2022-12-18T02:08:58;195.17;;;104.43;;
18267;SDS011;9260;49.998;19.880;2022-12-18T02:19:12;208.37;;;103.33;;
18267;SDS011;9260;49.998;19.880;2022-12-18T02:29:39;203.93;;;105.67;;
18267;SDS011;9260;49.998;19.880;2022-12-18T02:39:47;194.93;;;100.50;;
18267;SDS011;9260;49.998;19.880;2022-12-18T02:49:57;202.37;;;108.93;;
18267;SDS011;9260;49.998;19.880;2022-12-18T03:00:14;199.83;;;101.97;;
18267;SDS011;9260;49.998;19.880;2022-12-18T03:10:25;204.20;;;104.03;;
18267;SDS011;9260;49.998;19.880;2022-12-18T03:20:33;201.23;;;103.20;;
18267;SDS011;9260;49.998;19.880;2022-12-18T03:30:41;199.83;;;104.30;;
18267;SDS011;9260;49.998;19.880;2022-12-18T03:40:51;205.10;;;102.47;;
18267;SDS011;9260;49.998;19.880;2022-12-18T03:51:07;197.17;;;103.97;;
18267;SDS011;9260;49.998;19.880;2022-12-18T04:01:20;205.60;;;109.30;;
18267;SDS011;9260;49.998;19.880;2022-12-18T04:11:32;190.17;;;99.67;;
18267;SDS011;9260;49.998;19.880;2022-12-18T04:21:37;202.33;;;104.40;;
18267;SDS011;9260;49.998;19.880;2022-12-18T04:31:45;194.10;;;102.17;;
18267;SDS011;9260;49.998;19.880;2022-12-18T04:41:50;198.33;;;100.73;;
18267;SDS011;9260;49.998;19.880;2022-12-18T04:51:55;188.00;;;103.37;;
18267;SDS011;9260;49.998;19.880;2022-12-18T05:01:59;195.27;;;102.13;;
18267;SDS011;9260;49.998;19.880;2022-12-18T05:12:04;199.13;;;103.27;;
18267;SDS011;9260;49.998;19.880;2022-12-18T05:22:08;194.93;;;98.30;;
18267;SDS011;9260;49.998;19.880;2022-12-18T05:32:14;196.33;;;104.83;;
18267;SDS011;9260;49.998;19.880;2022-12-18T05:42:18;196.90;;;104.03;;
18267;SDS011;9260;49.998;19.880;2022-12-18T05:52:23;205.20;;;103.73;;
18267;SDS011;9260;49.998;19.880;2022-12-18T06:02:27;206.03;;;104.83;;
18267;SDS011;9260;49.998;19.880;2022-12-18T06:12:33;203.60;;;109.63;;
18267;SDS011;9260;49.998;19.880;2022-12-18T06:22:37;200.13;;;100.53;;
18267;SDS011;9260;49.998;19.880;2022-12-18T06:32:45;205.77;;;103.03;;
18267;SDS011;9260;49.998;19.880;2022-12-18T06:42:57;213.93;;;111.10;;
18267;SDS011;9260;49.998;19.880;2022-12-18T06:53:02;201.23;;;102.93;;
18267;SDS011;9260;49.998;19.880;2022-12-18T07:03:07;212.50;;;106.77;;
18267;SDS011;9260;49.998;19.880;2022-12-18T07:13:13;211.67;;;112.03;;
18267;SDS011;9260;49.998;19.880;2022-12-18T07:23:17;212.27;;;115.30;;
18267;SDS011;9260;49.998;19.880;2022-12-18T07:33:22;218.57;;;123.93;;
18267;SDS011;9260;49.998;19.880;2022-12-18T07:43:27;217.93;;;117.70;;
18267;SDS011;9260;49.998;19.880;2022-12-18T07:53:32;205.17;;;105.67;;
18267;SDS011;9260;49.998;19.880;2022-12-18T08:03:37;220.17;;;112.17;;
18267;SDS011;9260;49.998;19.880;2022-12-18T08:13:45;216.57;;;108.00;;
18267;SDS011;9260;49.998;19.880;2022-12-18T08:23:50;214.10;;;110.83;;
18267;SDS011;9260;49.998;19.880;2022-12-18T08:33:58;222.00;;;110.40;;
18267;SDS011;9260;49.998;19.880;2022-12-18T08:44:02;234.23;;;113.17;;
18267;SDS011;9260;49.998;19.880;2022-12-18T08:54:40;234.80;;;122.63;;
18267;SDS011;9260;49.998;19.880;2022-12-18T09:04:46;219.73;;;111.20;;
18267;SDS011;9260;49.998;19.880;2022-12-18T09:14:59;231.77;;;114.43;;
18267;SDS011;9260;49.998;19.880;2022-12-18T09:25:03;227.53;;;110.07;;
18267;SDS011;9260;49.998;19.880;2022-12-18T09:35:12;230.17;;;116.03;;
18267;SDS011;9260;49.998;19.880;2022-12-18T09:45:16;229.50;;;107.97;;
18267;SDS011;9260;49.998;19.880;2022-12-18T09:55:23;230.90;;;105.73;;
18267;SDS011;9260;49.998;19.880;2022-12-18T10:05:40;233.47;;;110.13;;
18267;SDS011;9260;49.998;19.880;2022-12-18T10:16:02;251.13;;;110.40;;
18267;SDS011;9260;49.998;19.880;2022-12-18T10:26:14;250.53;;;115.73;;
18267;SDS011;9260;49.998;19.880;2022-12-18T10:36:20;262.63;;;115.87;;
18267;SDS011;9260;49.998;19.880;2022-12-18T10:46:26;255.13;;;119.07;;
18267;SDS011;9260;49.998;19.880;2022-12-18T10:56:32;261.23;;;131.13;;
18267;SDS011;9260;49.998;19.880;2022-12-18T11:06:52;268.10;;;131.20;;
18267;SDS011;9260;49.998;19.880;2022-12-18T11:17:02;265.80;;;137.30;;
18267;SDS011;9260;49.998;19.880;2022-12-18T11:27:27;256.37;;;132.77;;
18267;SDS011;9260;49.998;19.880;2022-12-18T11:37:34;253.17;;;132.07;;
18267;SDS011;9260;49.998;19.880;2022-12-18T11:47:40;267.60;;;139.37;;
18267;SDS011;9260;49.998;19.880;2022-12-18T11:57:53;261.90;;;143.63;;
18267;SDS011;9260;49.998;19.880;2022-12-18T12:08:06;255.23;;;124.83;;
18267;SDS011;9260;49.998;19.880;2022-12-18T12:18:22;255.23;;;124.53;;
18267;SDS011;9260;49.998;19.880;2022-12-18T12:28:44;260.13;;;140.07;;
18267;SDS011;9260;49.998;19.880;2022-12-18T12:39:24;254.93;;;138.63;;
18267;SDS011;9260;49.998;19.880;2022-12-18T12:49:34;263.87;;;139.27;;
18267;SDS011;9260;49.998;19.880;2022-12-18T12:59:47;260.33;;;137.40;;
18267;SDS011;9260;49.998;19.880;2022-12-18T13:10:12;257.00;;;134.80;;
18267;SDS011;9260;49.998;19.880;2022-12-18T13:20:35;257.00;;;135.10;;
18267;SDS011;9260;49.998;19.880;2022-12-18T13:30:46;258.97;;;133.87;;
18267;SDS011;9260;49.998;19.880;2022-12-18T13:40:59;251.43;;;125.60;;
18267;SDS011;9260;49.998;19.880;2022-12-18T13:51:04;260.17;;;136.13;;
18267;SDS011;9260;49.998;19.880;2022-12-18T14:01:23;257.60;;;128.77;;
18267;SDS011;9260;49.998;19.880;2022-12-18T14:11:28;249.17;;;123.23;;
18267;SDS011;9260;49.998;19.880;2022-12-18T14:21:35;245.23;;;125.37;;
18267;SDS011;9260;49.998;19.880;2022-12-18T14:31:40;231.60;;;118.03;;
18267;SDS011;9260;49.998;19.880;2022-12-18T14:41:45;218.23;;;107.97;;
18267;SDS011;9260;49.998;19.880;2022-12-18T14:51:52;214.00;;;99.57;;
18267;SDS011;9260;49.998;19.880;2022-12-18T15:02:17;216.10;;;108.33;;
18267;SDS011;9260;49.998;19.880;2022-12-18T15:12:26;216.00;;;111.67;;
18267;SDS011;9260;49.998;19.880;2022-12-18T15:22:40;209.30;;;105.87;;
18267;SDS011;9260;49.998;19.880;2022-12-18T15:32:45;212.27;;;114.90;;
18267;SDS011;9260;49.998;19.880;2022-12-18T15:42:52;204.90;;;109.77;;
18267;SDS011;9260;49.998;19.880;2022-12-18T15:53:30;197.80;;;96.27;;
18267;SDS011;9260;49.998;19.880;2022-12-18T16:03:37;188.70;;;99.60;;
18267;SDS011;9260;49.998;19.880;2022-12-18T16:13:41;197.70;;;113.40;;
18267;SDS011;9260;49.998;19.880;2022-12-18T16:23:47;182.80;;;89.50;;
18267;SDS011;9260;49.998;19.880;2022-12-18T16:44:15;179.50;;;90.87;;
18267;SDS011;9260;49.998;19.880;2022-12-18T16:54:19;181.23;;;94.00;;
18267;SDS011;9260;49.998;19.880;2022-12-18T17:04:24;171.57;;;91.93;;
18267;SDS011;9260;49.998;19.880;2022-12-18T17:14:28;171.33;;;94.13;;
18267;SDS011;9260;49.998;19.880;2022-12-18T17:24:34;173.97;;;90.80;;
18267;SDS011;9260;49.998;19.880;2022-12-18T17:34:38;178.40;;;96.23;;
18267;SDS011;9260;49.998;19.880;2022-12-18T17:44:44;199.27;;;104.33;;
18267;SDS011;9260;49.998;19.880;2022-12-18T17:54:47;185.57;;;104.00;;
18267;SDS011;9260;49.998;19.880;2022-12-18T18:04:53;201.33;;;121.07;;
18267;SDS011;9260;49.998;19.880;2022-12-18T18:14:56;153.17;;;93.83;;
18267;SDS011;9260;49.998;19.880;2022-12-18T18:25:01;187.97;;;101.67;;
18267;SDS011;9260;49.998;19.880;2022-12-18T18:35:12;180.57;;;117.87;;
18267;SDS011;9260;49.998;19.880;2022-12-18T18:45:37;213.80;;;132.63;;
18267;SDS011;9260;49.998;19.880;2022-12-18T18:55:42;202.13;;;126.00;;
18267;SDS011;9260;49.998;19.880;2022-12-18T19:06:01;170.07;;;105.70;;
18267;SDS011;9260;49.998;19.880;2022-12-18T19:16:07;193.10;;;129.50;;
18267;SDS011;9260;49.998;19.880;2022-12-18T19:26:13;176.13;;;111.80;;
18267;SDS011;9260;49.998;19.880;2022-12-18T19:36:28;192.50;;;108.13;;
18267;SDS011;9260;49.998;19.880;2022-12-18T19:46:35;189.23;;;117.23;;
18267;SDS011;9260;49.998;19.880;2022-12-18T19:56:45;186.07;;;124.03;;
18267;SDS011;9260;49.998;19.880;2022-12-18T20:06:51;156.47;;;114.43;;
18267;SDS011;9260;49.998;19.880;2022-12-18T20:16:56;159.77;;;121.23;;
18267;SDS011;9260;49.998;19.880;2022-12-18T20:27:02;152.00;;;103.57;;
18267;SDS011;9260;49.998;19.880;2022-12-18T20:37:13;193.87;;;115.77;;
18267;SDS011;9260;49.998;19.880;2022-12-18T20:47:21;199.20;;;116.93;;
18267;SDS011;9260;49.998;19.880;2022-12-18T20:57:24;176.27;;;109.00;;
18267;SDS011;9260;49.998;19.880;2022-12-18T21:07:30;166.53;;;101.37;;
18267;SDS011;9260;49.998;19.880;2022-12-18T21:17:34;165.87;;;108.30;;
18267;SDS011;9260;49.998;19.880;2022-12-18T21:27:46;192.03;;;113.80;;
18267;SDS011;9260;49.998;19.880;2022-12-18T21:37:50;181.90;;;103.93;;
18267;SDS011;9260;49.998;19.880;2022-12-18T21:47:55;164.53;;;104.97;;
18267;SDS011;9260;49.998;19.880;2022-12-18T21:57:59;177.17;;;107.33;;
18267;SDS011;9260;49.998;19.880;2022-12-18T22:08:04;157.23;;;102.70;;
18267;SDS011;9260;49.998;19.880;2022-12-18T22:18:10;160.30;;;102.27;;
18267;SDS011;9260;49.998;19.880;2022-12-18T22:28:15;195.43;;;116.37;;
18267;SDS011;9260;49.998;19.880;2022-12-18T22:38:36;176.83;;;110.87;;
18267;SDS011;9260;49.998;19.880;2022-12-18T22:48:41;170.53;;;108.93;;
18267;SDS011;9260;49.998;19.880;2022-12-18T22:58:46;162.40;;;107.63;;
18267;SDS011;9260;49.998;19.880;2022-12-18T23:08:53;164.63;;;101.67;;
18267;SDS011;9260;49.998;19.880;2022-12-18T23:18:57;179.53;;;108.83;;
18267;SDS011;9260;49.998;19.880;2022-12-18T23:29:03;152.60;;;98.87;;
18267;SDS011;9260;49.998;19.880;2022-12-18T23:39:09;176.40;;;105.23;;
18267;SDS011;9260;49.998;19.880;2022-12-18T23:49:31;155.07;;;101.23;;
18267;SDS011;9260;49.998;19.880;2022-12-18T23:59:36;154.97;;;100.17;;
